YBCGYBNA

Guest
Details From YBCG - Gold Coast International
To YBNA - Ballina
Flight Number -
Tags Routegen Generated
Created
Modified
Stats Distance 52 nm / 97 km
Max Altitude 100 ft / 30 m
Waypoints 5
Social Downloads 0
Likes 0
Share

Download

Looking for another format? Having issues loading an existing format? Contact us
Advertisement - Login to hide

Notes

Departing runway 0 YBCG. Arriving runway 7 YBNA.

Route

YBCG -28.10_+153.51 -28.45_+153.58 -28.81_+153.65 YBNA

ID Type Via Altitude (ft/m) Position (lat/lon) Dist (leg/tot) Name
O YBCG APT - 0 / 0 -28.16934 / 153.50598 - / 0 nm Gold Coast International
-28.10_+153.51 LATLON - 100 / 30 -28.09715 / 153.51169 4 / 4 nm
-28.45_+153.58 LATLON - 100 / 30 -28.45368 / 153.58063 21 / 26 nm
-28.81_+153.65 LATLON - 100 / 30 -28.81020 / 153.64956 21 / 47 nm
O YBNA APT - 0 / 0 -28.83090 / 153.57041 4 / 52 nm

Altitude Profile

Advertisement - Login to hide

YBCG

Details ICAO YBCG (OOL)
Name Gold Coast International
Region Australia
Timezone Australia/Brisbane (UTC+10.0)
Stats Elevation 20 ft / 6 m (AMSL)
Location -28.164400° 153.505000°
Runways 2
Magnetic Variation 11.349° E

METAR

YBCG 011530Z AUTO 29004KT 9999 // NCD 15/14 Q1020 RF00.0/000.0

Decode

TAF

TAF YBCG 011105Z 0112/0212 31007KT 9999 FEW030 FM011800 22005KT CAVOK FM020200 14012KT 9999 FEW035 FM020900 19007KT 9999 SCT020

Decode

Departure Runways

ID Width Length Bearing (true/mag) Surface Threshold Overrun Markings Lighting
14 148 ft / 45 m 8,194 ft / 2,498 m 150.72° / 139.38° ASPHALT 0 ft / 0 m 404 ft / 123 m PREC-APP EDGE THRESHOLD TDZ REIL-OMNI
17 59 ft / 18 m 1,912 ft / 583 m 184.03° / 172.68° ASPHALT 0 ft / 0 m 0 ft / 0 m APP
32 148 ft / 45 m 8,194 ft / 2,498 m 330.72° / 319.37° ASPHALT 1,476 ft / 450 m 0 ft / 0 m PREC-APP EDGE THRESHOLD TDZ REIL-OMNI
35 59 ft / 18 m 1,912 ft / 583 m 4.03° / 352.68° ASPHALT 0 ft / 0 m 0 ft / 0 m APP

YBNA

Details ICAO YBNA (BNK)
Name Ballina/Byron Gateway
Region Australia
Timezone Australia/Sydney (UTC+10.0)
Stats Elevation 6 ft / 2 m (AMSL)
Location -28.833300° 153.561000°
Runways 1
Magnetic Variation 11.578° E

METAR

YBNA 011505Z AUTO 00000KT 5000 // NCD 13/12 Q1020

Decode

TAF

Not found

Destination Runways

ID Width Length Bearing (true/mag) Surface Threshold Overrun Markings Lighting
06 98 ft / 30 m 6,241 ft / 1,902 m 73.50° / 61.93° ASPHALT 0 ft / 0 m 0 ft / 0 m APP EDGE THRESHOLD
24 98 ft / 30 m 6,241 ft / 1,902 m 253.50° / 241.92° ASPHALT 0 ft / 0 m 0 ft / 0 m APP EDGE THRESHOLD

Popular Alternatives